Time;durP1;ratioP1;P1;durP2;ratioP2;P2;SDS_P1;SDS_P2;PMS_P1;PMS_P2;Temp;Humidity;BMP_temperature;BMP_pressure;BME280_temperature;BME280_humidity;BME280_pressure;Samples;Min_cycle;Max_cycle;Signal;HPM_P1;HPM_P2
2022/01/30 00:02:15;;;;;;;2.60;1.50;;;;;;;3.73;85.49;97354.21;106217;1277;137281;-73
2022/01/30 00:04:42;;;;;;;2.50;1.60;;;;;;;3.77;85.67;97346.50;105939;1279;22572;-74
2022/01/30 00:07:10;;;;;;;3.50;1.40;;;;;;;3.79;85.26;97345.10;106200;1278;23822;-73
2022/01/30 00:09:51;;;;;;;4.40;1.80;;;;;;;3.81;85.42;97347.67;105993;1277;137725;-73
2022/01/30 00:12:26;;;;;;;5.40;2.30;;;;;;;3.84;85.29;97340.21;106290;1277;24291;-73
2022/01/30 00:15:07;;;;;;;3.90;1.80;;;;;;;3.85;85.23;97345.80;106292;1277;137229;-73
2022/01/30 00:17:40;;;;;;;3.20;1.50;;;;;;;3.86;85.07;97347.08;106253;1277;25241;-74
2022/01/30 00:20:13;;;;;;;2.90;1.70;;;;;;;3.88;85.10;97334.94;106055;1278;137614;-74
2022/01/30 00:23:12;;;;;;;2.10;1.10;;;;;;;3.90;85.17;97338.02;105956;1278;22557;-74
2022/01/30 00:25:42;;;;;;;2.70;1.60;;;;;;;3.94;85.11;97336.60;106305;1278;25575;-74
2022/01/30 00:28:12;;;;;;;3.60;2.10;;;;;;;3.96;84.99;97330.67;106225;1277;137188;-74
2022/01/30 00:30:39;;;;;;;4.40;1.90;;;;;;;3.97;84.84;97344.50;106013;1278;25330;-73
2022/01/30 00:33:06;;;;;;;3.40;1.90;;;;;;;3.97;84.81;97331.45;105963;1278;137683;-73
2022/01/30 00:35:35;;;;;;;3.90;1.90;;;;;;;3.98;84.79;97331.33;106072;1281;24224;-73
2022/01/30 00:38:03;;;;;;;;;;;;;;;3.99;84.70;97331.83;106330;1277;25232;-73
2022/01/30 00:40:30;;;;;;;3.00;1.90;;;;;;;3.98;84.72;97327.29;106215;1277;123121;-74
2022/01/30 00:42:57;;;;;;;3.70;2.00;;;;;;;3.97;84.76;97316.44;105986;1278;22579;-73
2022/01/30 00:45:25;;;;;;;3.70;1.70;;;;;;;3.98;84.85;97333.42;106163;1277;137968;-73
2022/01/30 00:47:51;;;;;;;3.00;1.20;;;;;;;4.00;85.09;97329.27;106176;1280;22580;-73
2022/01/30 00:50:18;;;;;;;2.90;1.10;;;;;;;4.01;84.96;97339.04;106037;1277;138013;-73
2022/01/30 00:52:50;;;;;;;2.20;1.10;;;;;;;4.00;84.84;97349.15;105950;1278;22731;-73
2022/01/30 00:55:17;;;;;;;2.10;1.30;;;;;;;3.98;85.12;97338.56;106117;1277;22689;-73
2022/01/30 00:57:44;;;;;;;1.80;1.10;;;;;;;3.98;85.05;97336.45;105995;1277;137632;-73
2022/01/30 01:00:12;;;;;;;1.90;1.30;;;;;;;3.99;84.96;97298.65;106247;1277;24230;-73
2022/01/30 01:02:39;;;;;;;1.50;1.20;;;;;;;4.01;84.80;97291.73;106532;1278;137394;-73
2022/01/30 01:05:08;;;;;;;2.40;1.40;;;;;;;4.03;84.64;97299.82;106387;1277;25888;-73
2022/01/30 01:07:41;;;;;;;2.10;1.30;;;;;;;4.04;84.72;97301.46;106075;1281;23496;-73
2022/01/30 01:10:16;;;;;;;2.40;1.40;;;;;;;4.05;84.74;97302.45;106271;1278;137655;-73
2022/01/30 01:13:04;;;;;;;4.40;1.10;;;;;;;4.05;84.78;97300.02;106102;1277;22561;-73
2022/01/30 01:23:52;;;;;;;3.30;1.30;;;;;;;3.94;86.40;97284.84;106028;1277;22560;-72
2022/01/30 01:26:21;;;;;;;1.90;1.40;;;;;;;3.91;86.84;97275.08;106150;1277;138499;-73
2022/01/30 01:28:48;;;;;;;3.20;1.60;;;;;;;3.88;87.07;97282.27;106154;1279;22711;-73
2022/01/30 01:31:15;;;;;;;3.40;1.90;;;;;;;3.86;87.30;97271.83;105933;1277;24259;-74
2022/01/30 01:36:29;;;;;;;3.30;1.50;;;;;;;3.82;87.61;97270.57;106066;1277;22545;-73
2022/01/30 01:38:56;;;;;;;3.80;1.60;;;;;;;3.79;87.99;97242.78;106215;1278;137837;-73
2022/01/30 01:41:25;;;;;;;3.20;1.70;;;;;;;3.78;87.90;97252.89;106146;1277;22561;-73
2022/01/30 01:43:52;;;;;;;2.50;1.40;;;;;;;3.78;88.01;97267.27;106718;1277;22571;-73
2022/01/30 01:46:29;;;;;;;2.60;1.60;;;;;;;3.76;88.11;97265.77;106402;1277;137671;-73
2022/01/30 01:48:56;;;;;;;2.40;1.50;;;;;;;3.73;88.18;97268.33;106167;1278;22714;-73
2022/01/30 01:51:30;;;;;;;1.90;1.40;;;;;;;3.71;88.46;97253.41;106300;1277;137851;-73
2022/01/30 01:53:59;;;;;;;1.60;1.10;;;;;;;3.68;88.58;97252.27;106293;1277;23055;-73
2022/01/30 01:56:28;;;;;;;2.40;2.20;;;;;;;3.64;88.65;97256.46;106235;1277;137236;-73
2022/01/30 01:59:19;;;;;;;1.40;1.30;;;;;;;3.63;89.02;97259.71;106192;1277;23364;-73
2022/01/30 02:02:00;;;;;;;;;;;;;;;3.63;89.22;97255.52;106637;1277;23832;-73
2022/01/30 02:04:28;;;;;;;2.70;1.40;;;;;;;3.63;89.47;97260.38;106273;1278;124455;-73
2022/01/30 02:09:56;;;;;;;2.90;1.70;;;;;;;3.62;89.32;97281.39;106114;1277;137094;-73
2022/01/30 02:12:32;;;;;;;2.80;1.70;;;;;;;3.60;88.90;97282.78;106154;1277;22573;-73
2022/01/30 02:27:00;;;;;;;3.90;1.80;;;;;;;3.41;86.40;97292.25;105581;1280;138034;-73
2022/01/30 02:29:27;;;;;;;4.80;1.60;;;;;;;3.36;86.13;97298.73;106150;1277;26701;-73
2022/01/30 02:31:57;;;;;;;4.30;1.70;;;;;;;3.34;86.11;97295.77;105884;1277;25375;-73
2022/01/30 02:34:38;;;;;;;5.00;1.90;;;;;;;3.31;86.25;97294.29;106113;1277;137359;-73
2022/01/30 02:37:06;;;;;;;3.80;1.80;;;;;;;3.27;86.24;97279.77;106151;1277;24279;-73
2022/01/30 02:39:33;;;;;;;5.00;2.10;;;;;;;3.23;86.45;97286.76;106102;1277;137907;-73
2022/01/30 02:42:00;;;;;;;7.70;2.50;;;;;;;3.20;86.52;97282.70;106055;1278;24104;-73
2022/01/30 02:44:49;;;;;;;4.30;1.70;;;;;;;3.19;86.54;97290.09;106326;1277;137404;-73
2022/01/30 02:52:57;;;;;;;4.30;1.70;;;;;;;3.19;86.43;97301.92;106026;1277;196202;-74
2022/01/30 02:55:24;;;;;;;3.00;1.40;;;;;;;3.21;86.43;97294.44;105971;1278;23958;-74
2022/01/30 02:57:51;;;;;;;5.10;1.50;;;;;;;3.23;86.18;97295.53;106099;1277;137582;-74
2022/01/30 03:00:18;;;;;;;4.10;1.40;;;;;;;3.26;85.97;97298.90;106117;1277;22563;-72
2022/01/30 03:02:46;;;;;;;4.20;1.50;;;;;;;3.28;85.37;97288.83;106225;1277;137118;-72
2022/01/30 03:05:13;;;;;;;5.20;1.20;;;;;;;3.30;84.06;97298.02;106148;1277;23399;-74
2022/01/30 03:07:40;;;;;;;6.60;1.70;;;;;;;3.33;83.72;97299.13;105963;1277;25337;-72
2022/01/30 03:10:08;;;;;;;4.20;1.10;;;;;;;3.35;83.40;97300.77;105837;1277;136994;-73
2022/01/30 03:12:35;;;;;;;6.80;1.90;;;;;;;3.36;82.98;97299.42;106370;1278;22662;-72
2022/01/30 03:15:04;;;;;;;5.00;1.40;;;;;;;3.36;82.43;97294.95;106094;1277;137905;-72
2022/01/30 03:17:32;;;;;;;5.60;1.20;;;;;;;3.36;82.04;97281.56;106180;1278;25247;-73
2022/01/30 03:19:59;;;;;;;3.40;1.00;;;;;;;3.38;81.57;97275.64;106149;1275;22566;-72
2022/01/30 03:22:27;;;;;;;6.60;1.30;;;;;;;3.38;81.78;97277.42;106105;1277;136931;-73
2022/01/30 03:24:54;;;;;;;6.60;1.70;;;;;;;3.35;81.27;97277.13;106073;1278;24332;-73
2022/01/30 03:27:44;;;;;;;5.90;1.50;;;;;;;3.32;80.67;97281.02;105694;1277;137582;-72
2022/01/30 03:30:18;;;;;;;5.80;1.60;;;;;;;3.30;80.78;97275.95;106321;1278;25107;-73
2022/01/30 03:33:04;;;;;;;6.80;1.20;;;;;;;3.27;80.33;97280.46;105951;1278;138357;-72
2022/01/30 03:35:32;;;;;;;5.70;1.30;;;;;;;3.26;80.23;97275.98;106224;1277;25494;-73
2022/01/30 03:38:00;;;;;;;7.40;1.50;;;;;;;3.25;80.01;97275.94;106100;1277;22571;-72
2022/01/30 03:40:27;;;;;;;8.60;1.70;;;;;;;3.24;79.66;97281.45;106272;1278;137624;-73
2022/01/30 03:42:54;;;;;;;8.00;1.50;;;;;;;3.22;79.58;97289.95;106041;1277;23446;-73
2022/01/30 03:45:21;;;;;;;7.20;1.10;;;;;;;3.22;78.98;97279.90;105804;1277;137449;-73
2022/01/30 03:48:03;;;;;;;8.70;1.80;;;;;;;3.24;78.81;97268.65;106067;1278;22639;-73
2022/01/30 03:50:49;;;;;;;5.30;1.10;;;;;;;3.26;78.42;97268.48;106263;1277;138055;-72
2022/01/30 03:53:16;;;;;;;10.50;1.60;;;;;;;3.26;77.70;97261.80;106011;1277;22698;-73
2022/01/30 03:55:43;;;;;;;9.00;1.80;;;;;;;3.27;77.64;97263.66;106002;1277;22589;-72
2022/01/30 03:58:15;;;;;;;6.30;1.20;;;;;;;3.27;76.80;97264.78;106029;1277;138086;-73
2022/01/30 04:00:44;;;;;;;4.50;1.20;;;;;;;3.28;76.96;97261.00;106026;1277;22619;-73
2022/01/30 04:03:11;;;;;;;3.70;0.90;;;;;;;3.28;76.91;97254.92;105633;1277;138368;-73
2022/01/30 04:05:38;;;;;;;10.50;1.40;;;;;;;3.27;76.66;97247.80;106097;1277;25430;-75
2022/01/30 04:08:06;;;;;;;6.40;1.50;;;;;;;3.26;75.98;97244.64;105954;1277;22857;-73
2022/01/30 04:10:37;;;;;;;5.30;1.10;;;;;;;3.25;74.42;97245.02;105954;1279;136869;-74
2022/01/30 04:13:28;;;;;;;4.60;1.10;;;;;;;3.28;73.71;97241.16;106046;1279;24335;-73
2022/01/30 04:16:11;;;;;;;8.20;1.10;;;;;;;3.30;73.07;97235.93;106049;1277;138055;-73
2022/01/30 04:18:57;;;;;;;5.70;1.30;;;;;;;3.34;71.15;97236.16;106106;1277;22727;-73
2022/01/30 04:21:44;;;;;;;5.90;1.20;;;;;;;3.39;71.63;97230.80;106019;1277;137952;-73
2022/01/30 04:24:25;;;;;;;6.60;1.40;;;;;;;3.42;70.63;97230.54;106531;1277;22567;-73
2022/01/30 04:27:11;;;;;;;8.70;1.70;;;;;;;3.46;69.32;97228.71;105899;1277;137686;-73
2022/01/30 04:29:57;;;;;;;4.60;1.10;;;;;;;3.49;69.59;97222.70;106222;1277;23975;-73
2022/01/30 04:32:41;;;;;;;4.80;0.90;;;;;;;3.50;69.28;97214.43;106289;1278;137670;-73
2022/01/30 04:35:29;;;;;;;7.50;1.00;;;;;;;3.53;68.82;97209.09;106204;1277;22720;-75
2022/01/30 04:38:10;;;;;;;6.00;1.30;;;;;;;3.53;69.44;97208.72;106302;1277;25321;-73
2022/01/30 04:41:18;;;;;;;5.70;1.50;;;;;;;3.51;69.92;97221.35;106162;1277;136810;-73
2022/01/30 04:59:29;;;;;;;4.70;1.20;;;;;;;2.72;76.10;97234.11;106002;1279;137350;-73
2022/01/30 05:08:21;;;;;;;10.80;1.50;;;;;;;2.32;77.73;97242.02;106265;1277;24238;-73
2022/01/30 05:11:07;;;;;;;6.50;0.90;;;;;;;2.25;77.96;97237.16;105917;1278;138151;-72
2022/01/30 05:14:02;;;;;;;6.50;1.30;;;;;;;2.24;78.14;97239.05;106672;1277;22563;-73
2022/01/30 05:17:04;;;;;;;7.00;1.00;;;;;;;2.20;78.22;97227.98;105878;1277;136885;-73
2022/01/30 05:20:04;;;;;;;5.30;1.20;;;;;;;2.18;78.01;97223.55;106020;1278;23145;-73
2022/01/30 05:22:50;;;;;;;5.70;1.10;;;;;;;2.19;77.65;97210.91;106065;1277;137570;-73
2022/01/30 05:25:38;;;;;;;7.50;1.50;;;;;;;2.23;77.53;97216.83;105945;1277;24305;-73
2022/01/30 05:28:12;;;;;;;9.50;2.70;;;;;;;2.26;77.50;97211.45;105929;1277;136862;-73
2022/01/30 05:30:43;;;;;;;4.30;1.50;;;;;;;2.28;77.67;97213.39;105979;1280;22716;-73
2022/01/30 05:33:31;;;;;;;5.70;1.00;;;;;;;2.27;77.78;97198.23;105869;1277;137052;-73
2022/01/30 05:36:20;;;;;;;7.00;1.30;;;;;;;2.27;77.88;97190.84;105887;1278;24770;-73
2022/01/30 05:38:58;;;;;;;3.50;0.90;;;;;;;2.26;78.13;97176.70;105978;1276;137877;-72
2022/01/30 05:41:44;;;;;;;5.70;1.60;;;;;;;2.29;78.35;97159.33;106249;1277;22586;-73
2022/01/30 05:47:57;;;;;;;5.00;1.60;;;;;;;2.22;78.66;97145.23;106089;1277;25335;-73
2022/01/30 05:50:44;;;;;;;7.60;1.40;;;;;;;2.18;78.70;97139.86;106264;1277;22714;-73
2022/01/30 05:53:23;;;;;;;8.30;1.40;;;;;;;2.16;78.55;97138.44;106045;1277;137729;-73
2022/01/30 05:56:01;;;;;;;3.60;1.10;;;;;;;2.16;78.52;97125.38;106179;1278;23199;-73
2022/01/30 05:58:28;;;;;;;13.30;1.60;;;;;;;2.17;78.30;97113.25;106096;1277;136958;-73
2022/01/30 06:01:05;;;;;;;5.80;1.10;;;;;;;2.18;77.94;97109.78;106463;1277;22588;-73
2022/01/30 06:03:32;;;;;;;6.50;1.30;;;;;;;2.20;77.37;97108.64;106115;1277;137406;-73
2022/01/30 06:06:00;;;;;;;8.90;1.50;;;;;;;2.25;77.13;97101.26;106248;1277;24312;-73
2022/01/30 06:11:13;;;;;;;7.80;1.30;;;;;;;2.38;75.62;97109.45;106035;1278;136873;-73
2022/01/30 06:13:41;;;;;;;9.40;1.20;;;;;;;2.44;75.09;97112.52;106234;1278;25352;-73
2022/01/30 06:16:08;;;;;;;3.80;1.00;;;;;;;2.50;74.18;97111.77;106335;1277;137051;-74
2022/01/30 06:18:35;;;;;;;6.60;1.10;;;;;;;2.57;73.53;97114.80;106448;1277;24415;-74
2022/01/30 06:21:02;;;;;;;4.70;1.00;;;;;;;2.63;72.38;97123.10;106665;1277;23077;-74
2022/01/30 06:23:49;;;;;;;8.30;1.80;;;;;;;2.71;72.32;97114.11;106103;1277;137587;-73
2022/01/30 06:26:34;;;;;;;3.10;0.90;;;;;;;2.78;71.81;97105.36;107031;1277;22523;-74
2022/01/30 06:29:20;;;;;;;3.70;1.40;;;;;;;2.84;71.08;97115.05;106170;1277;137471;-73
2022/01/30 06:32:06;;;;;;;5.40;1.60;;;;;;;2.88;70.65;97117.67;106184;1279;22651;-73
2022/01/30 06:34:51;;;;;;;6.20;0.90;;;;;;;2.93;69.99;97117.36;106442;1277;136728;-72
2022/01/30 06:37:52;;;;;;;5.40;1.10;;;;;;;2.97;70.03;97122.85;106277;1277;22778;-73
2022/01/30 06:40:29;;;;;;;4.10;0.80;;;;;;;2.99;69.36;97121.04;106574;1277;137447;-73
2022/01/30 06:43:14;;;;;;;8.00;1.60;;;;;;;3.04;68.66;97119.89;106105;1277;22573;-73
2022/01/30 06:46:01;;;;;;;4.20;0.80;;;;;;;3.09;68.16;97121.72;106451;1277;137463;-73
2022/01/30 06:48:55;;;;;;;4.90;1.10;;;;;;;3.14;67.66;97121.73;106046;1277;23500;-73
2022/01/30 06:51:40;;;;;;;4.30;0.90;;;;;;;3.18;67.90;97117.10;106201;1277;137102;-73
2022/01/30 06:54:26;;;;;;;9.20;1.80;;;;;;;3.20;67.85;97122.20;106547;1277;22587;-73
2022/01/30 06:57:12;;;;;;;2.60;0.70;;;;;;;3.19;68.20;97110.13;107166;1277;22673;-72
2022/01/30 06:59:58;;;;;;;3.00;0.80;;;;;;;3.19;68.54;97108.30;106512;1277;138000;-73
2022/01/30 07:02:48;;;;;;;5.90;1.10;;;;;;;3.22;68.15;97107.27;106087;1278;22569;-73
2022/01/30 07:05:33;;;;;;;7.00;2.10;;;;;;;3.23;67.95;97105.98;105722;1277;136902;-72
2022/01/30 07:08:23;;;;;;;5.40;1.50;;;;;;;3.26;67.86;97105.98;105987;1277;24221;-72
2022/01/30 07:10:50;;;;;;;8.20;1.90;;;;;;;3.27;68.22;97101.75;106783;1277;137728;-73
2022/01/30 07:13:17;;;;;;;3.30;1.30;;;;;;;3.26;67.47;97104.80;107887;1277;25309;-72
2022/01/30 07:15:44;;;;;;;4.80;1.10;;;;;;;3.28;67.20;97105.33;107533;1277;137065;-73
2022/01/30 07:18:24;;;;;;;3.60;1.10;;;;;;;3.29;67.04;97103.11;107412;1277;24440;-73
2022/01/30 07:20:52;;;;;;;4.10;1.40;;;;;;;3.32;66.59;97112.05;106783;1277;22598;-73
2022/01/30 07:23:19;;;;;;;3.00;1.00;;;;;;;3.34;67.28;97111.55;106904;1277;136960;-73
2022/01/30 07:25:46;;;;;;;3.70;0.80;;;;;;;3.36;66.59;97105.52;106612;1278;22686;-73
2022/01/30 07:28:13;;;;;;;2.80;0.90;;;;;;;3.38;66.33;97112.28;106659;1277;137640;-73
2022/01/30 07:30:55;;;;;;;4.70;1.10;;;;;;;3.39;66.55;97112.73;106901;1277;31788;-73
2022/01/30 07:33:24;;;;;;;;;;;;;;;3.40;66.71;97117.64;107300;1277;22589;-73
2022/01/30 07:35:53;;;;;;;5.20;1.30;;;;;;;3.39;66.58;97119.98;106436;1277;123502;-73
2022/01/30 07:38:21;;;;;;;;;;;;;;;3.37;66.80;97115.40;106662;1277;25238;-73
2022/01/30 07:40:49;;;;;;;7.00;1.20;;;;;;;3.36;66.31;97111.30;105885;1277;123272;-73
2022/01/30 07:43:17;;;;;;;7.00;1.50;;;;;;;3.37;65.72;97109.77;106387;1277;25270;-73
2022/01/30 07:46:07;;;;;;;7.10;1.40;;;;;;;3.39;66.44;97094.63;106052;1278;137605;-73
2022/01/30 07:48:34;;;;;;;6.30;1.10;;;;;;;3.37;66.38;97095.29;106519;1277;22580;-73
2022/01/30 07:51:01;;;;;;;6.10;1.70;;;;;;;3.36;66.66;97094.34;106701;1277;22548;-73
2022/01/30 07:53:28;;;;;;;6.30;1.80;;;;;;;3.35;66.86;97079.95;106353;1277;137504;-72
2022/01/30 07:55:56;;;;;;;6.50;1.60;;;;;;;3.35;67.09;97076.99;107057;1277;23252;-72
2022/01/30 07:58:23;;;;;;;5.60;1.10;;;;;;;3.34;66.87;97075.72;106501;1277;136828;-72
2022/01/30 08:00:50;;;;;;;5.30;1.50;;;;;;;3.34;66.66;97070.33;107001;1277;22585;-73
2022/01/30 08:03:17;;;;;;;6.70;2.10;;;;;;;3.34;66.48;97070.41;106137;1277;24332;-72
2022/01/30 08:05:44;;;;;;;6.50;2.50;;;;;;;3.35;66.53;97071.19;106496;1277;137849;-72
2022/01/30 08:08:11;;;;;;;6.40;1.50;;;;;;;3.36;66.49;97084.36;106547;1277;27048;-73
2022/01/30 08:10:52;;;;;;;4.30;1.20;;;;;;;3.35;66.84;97092.12;106629;1277;136808;-72
2022/01/30 08:13:33;;;;;;;6.60;1.80;;;;;;;3.34;67.57;97077.40;106119;1277;23826;-72
2022/01/30 08:16:14;;;;;;;5.10;2.40;;;;;;;3.32;67.97;97074.98;106187;1277;137362;-72
2022/01/30 08:18:41;;;;;;;4.40;1.00;;;;;;;3.35;68.09;97080.66;106275;1277;25360;-72
2022/01/30 08:21:08;;;;;;;2.40;1.30;;;;;;;3.44;67.82;97073.77;106793;1277;24064;-73
2022/01/30 08:23:35;;;;;;;4.50;1.20;;;;;;;3.56;67.67;97079.44;106338;1277;137375;-73
2022/01/30 08:26:02;;;;;;;4.80;1.50;;;;;;;3.61;67.05;97083.19;106377;1277;24216;-73
2022/01/30 08:28:30;;;;;;;5.00;1.40;;;;;;;3.62;67.48;97075.56;106559;1277;137765;-73
2022/01/30 08:30:57;;;;;;;6.40;2.00;;;;;;;3.57;67.78;97072.08;107208;1277;24257;-73
2022/01/30 08:33:24;;;;;;;6.70;1.30;;;;;;;3.49;68.57;97079.42;106322;1277;22604;-73
2022/01/30 08:35:51;;;;;;;6.50;1.80;;;;;;;3.41;69.47;97067.65;106595;1277;137657;-73
2022/01/30 08:38:18;;;;;;;6.90;1.60;;;;;;;3.30;70.07;97070.41;106298;1277;22888;-73
2022/01/30 08:40:48;;;;;;;6.50;1.80;;;;;;;3.22;70.53;97066.89;107523;1277;137672;-73
2022/01/30 08:43:17;;;;;;;3.80;1.30;;;;;;;3.19;70.65;97063.21;106737;1277;22637;-72
2022/01/30 08:45:44;;;;;;;5.60;1.90;;;;;;;3.16;70.65;97071.53;107098;1277;137560;-73
2022/01/30 08:48:11;;;;;;;10.60;1.90;;;;;;;3.13;70.61;97075.92;107057;1277;23632;-73
2022/01/30 08:50:38;;;;;;;6.30;1.40;;;;;;;3.09;70.94;97081.09;107206;1277;22568;-73
2022/01/30 08:53:05;;;;;;;4.80;1.30;;;;;;;3.04;70.98;97082.11;106719;1277;137161;-72
2022/01/30 08:55:46;;;;;;;7.30;1.20;;;;;;;2.98;70.91;97080.52;107705;1277;22591;-73
2022/01/30 08:58:13;;;;;;;4.00;1.60;;;;;;;2.95;71.10;97083.61;106303;1277;137990;-73
2022/01/30 09:00:42;;;;;;;7.90;1.90;;;;;;;2.94;71.38;97068.77;106399;1277;23386;-73
2022/01/30 09:03:10;;;;;;;6.10;1.70;;;;;;;2.91;71.60;97085.17;106926;1278;22584;-74
2022/01/30 09:05:38;;;;;;;3.90;1.70;;;;;;;2.89;72.04;97077.55;106162;1277;137015;-73
2022/01/30 09:08:07;;;;;;;5.20;1.30;;;;;;;2.89;71.94;97078.49;106426;1278;24871;-73
2022/01/30 09:10:36;;;;;;;5.00;1.90;;;;;;;2.87;71.88;97085.23;106502;1277;137204;-73
2022/01/30 09:13:04;;;;;;;5.70;2.00;;;;;;;2.88;71.31;97077.81;106232;1277;24406;-73
2022/01/30 09:15:39;;;;;;;5.50;1.40;;;;;;;2.91;71.28;97084.64;106266;1277;26815;-73
2022/01/30 09:18:09;;;;;;;2.80;1.40;;;;;;;2.92;71.16;97089.65;106022;1277;137660;-72
2022/01/30 09:20:39;;;;;;;7.80;1.40;;;;;;;2.92;70.97;97087.51;106302;1277;24411;-73
2022/01/30 09:23:08;;;;;;;5.80;1.50;;;;;;;2.92;70.91;97088.54;106834;1278;137204;-72
2022/01/30 09:25:35;;;;;;;6.20;1.70;;;;;;;2.92;71.16;97086.60;106119;1277;23270;-73
2022/01/30 09:28:02;;;;;;;4.20;1.90;;;;;;;2.91;71.02;97078.92;106470;1278;137145;-73
2022/01/30 09:30:29;;;;;;;4.70;1.40;;;;;;;2.92;71.49;97094.30;106134;1277;22572;-74
2022/01/30 09:32:56;;;;;;;8.20;1.50;;;;;;;2.91;71.86;97098.77;106758;1277;22704;-73
2022/01/30 09:35:37;;;;;;;5.90;1.90;;;;;;;2.87;72.45;97099.00;106541;1277;137904;-73
2022/01/30 09:38:04;;;;;;;5.20;1.40;;;;;;;2.83;73.01;97107.98;106325;1277;22579;-73
2022/01/30 09:40:31;;;;;;;7.00;1.90;;;;;;;2.77;73.46;97104.55;106361;1277;137361;-73
2022/01/30 09:42:58;;;;;;;4.70;1.20;;;;;;;2.73;73.94;97101.42;106548;1278;22611;-73
2022/01/30 09:45:39;;;;;;;2.60;1.10;;;;;;;2.70;73.99;97111.11;106210;1277;22642;-74
2022/01/30 09:48:07;;;;;;;8.50;2.20;;;;;;;2.66;74.38;97095.61;105956;1277;136680;-73
2022/01/30 09:50:35;;;;;;;8.10;1.80;;;;;;;2.66;74.77;97097.42;106107;1277;22585;-73
2022/01/30 09:53:18;;;;;;;8.10;1.90;;;;;;;2.66;74.40;97093.92;106460;1277;136853;-73
2022/01/30 09:55:44;;;;;;;5.70;1.50;;;;;;;2.68;74.42;97078.66;106148;1277;22735;-73
2022/01/30 09:58:12;;;;;;;5.00;1.70;;;;;;;2.73;74.22;97069.88;106525;1277;137507;-74
2022/01/30 10:00:39;;;;;;;7.60;2.20;;;;;;;2.78;74.23;97069.39;106073;1277;22998;-75
2022/01/30 10:03:06;;;;;;;5.60;2.00;;;;;;;2.83;74.24;97068.30;106409;1277;25242;-75
2022/01/30 10:05:34;;;;;;;3.70;1.60;;;;;;;2.87;73.88;97065.49;106500;1278;137784;-73
2022/01/30 10:08:03;;;;;;;9.50;2.70;;;;;;;2.88;73.83;97060.61;106629;1277;24266;-73
2022/01/30 10:10:30;;;;;;;6.50;2.20;;;;;;;2.89;73.75;97059.30;106903;1277;137974;-72
2022/01/30 10:13:11;;;;;;;4.90;1.80;;;;;;;2.93;73.48;97063.29;106139;1277;22552;-74
2022/01/30 10:16:04;;;;;;;6.80;2.20;;;;;;;2.98;72.93;97063.33;106158;1279;22567;-74
2022/01/30 10:18:32;;;;;;;8.40;2.10;;;;;;;3.01;72.61;97058.69;106037;1277;22586;-71
2022/01/30 10:21:00;;;;;;;8.70;2.40;;;;;;;3.03;72.78;97061.06;106074;1277;22752;-71
2022/01/30 10:23:35;;;;;;;8.70;2.70;;;;;;;3.08;72.87;97063.92;106365;1277;136838;-71
2022/01/30 10:26:18;;;;;;;9.10;2.10;;;;;;;3.16;72.58;97060.77;106071;1277;22619;-72
2022/01/30 10:28:45;;;;;;;5.40;1.90;;;;;;;3.22;71.98;97066.26;105723;1277;137442;-72
2022/01/30 10:31:12;;;;;;;10.10;3.10;;;;;;;3.27;71.16;97080.18;106467;1278;25279;-70
2022/01/30 10:33:47;;;;;;;11.70;2.40;;;;;;;3.30;70.75;97084.07;106274;1277;25580;-74
2022/01/30 10:36:30;;;;;;;9.00;2.40;;;;;;;3.30;70.91;97091.55;105859;1277;137424;-72
2022/01/30 10:39:01;;;;;;;15.90;2.80;;;;;;;3.28;71.13;97104.25;106286;1277;23940;-75
2022/01/30 10:41:37;;;;;;;9.20;2.10;;;;;;;3.19;72.02;97123.00;105777;1277;137229;-73
2022/01/30 10:44:07;;;;;;;7.90;2.50;;;;;;;3.10;73.25;97129.96;106093;1279;25372;-73
2022/01/30 10:46:39;;;;;;;6.50;1.60;;;;;;;2.99;74.40;97130.91;106333;1279;137703;-73
2022/01/30 10:49:21;;;;;;;9.70;1.90;;;;;;;2.82;75.67;97150.44;105933;1279;22553;-73
2022/01/30 10:52:06;;;;;;;8.10;1.80;;;;;;;2.65;76.89;97159.46;106302;1278;24133;-73
2022/01/30 10:54:34;;;;;;;7.20;1.70;;;;;;;2.43;78.55;97172.52;106117;1278;137623;-73
2022/01/30 10:57:02;;;;;;;7.90;2.50;;;;;;;2.25;79.31;97172.80;106126;1278;24387;-73
2022/01/30 10:59:30;;;;;;;7.50;1.80;;;;;;;2.13;80.34;97164.38;106120;1279;137191;-73
2022/01/30 11:02:11;;;;;;;11.50;2.40;;;;;;;2.03;81.73;97163.23;106031;1278;22743;-73
2022/01/30 11:04:38;;;;;;;6.20;2.60;;;;;;;1.93;82.72;97178.29;105965;1277;137605;-75
2022/01/30 11:07:06;;;;;;;8.20;2.30;;;;;;;1.89;83.02;97168.75;106025;1277;22557;-74
2022/01/30 11:09:48;;;;;;;6.20;2.10;;;;;;;1.87;83.72;97177.02;105925;1277;22636;-74
2022/01/30 11:12:16;;;;;;;9.90;2.00;;;;;;;1.88;84.22;97159.30;105719;1277;137397;-73
2022/01/30 11:17:19;;;;;;;8.70;1.60;;;;;;;1.92;84.81;97148.36;105793;1279;137714;-73
2022/01/30 11:19:52;;;;;;;6.10;1.70;;;;;;;1.95;84.70;97143.08;106013;1278;22569;-76
2022/01/30 11:22:23;;;;;;;5.90;1.80;;;;;;;1.98;84.87;97144.83;106089;1278;137472;-73
2022/01/30 11:24:59;;;;;;;7.00;2.10;;;;;;;1.98;84.95;97151.05;106078;1277;22542;-73
2022/01/30 11:27:26;;;;;;;6.20;2.10;;;;;;;1.96;85.09;97146.16;106082;1277;25365;-73
2022/01/30 11:29:53;;;;;;;7.20;3.10;;;;;;;1.95;85.18;97158.19;105859;1277;138340;-73
2022/01/30 11:32:22;;;;;;;7.50;2.20;;;;;;;1.95;85.17;97145.23;106258;1277;24305;-74
2022/01/30 11:34:49;;;;;;;8.40;1.80;;;;;;;1.99;85.25;97136.47;106562;1277;137757;-73
2022/01/30 11:37:17;;;;;;;7.00;2.00;;;;;;;2.02;85.03;97137.22;106211;1279;22576;-73
2022/01/30 11:39:46;;;;;;;7.80;1.80;;;;;;;2.04;84.72;97129.92;106169;1278;25578;-73
2022/01/30 11:42:44;;;;;;;11.90;2.20;;;;;;;2.07;84.42;97131.63;106142;1278;137641;-73
2022/01/30 11:45:17;;;;;;;7.20;2.00;;;;;;;2.12;83.92;97120.58;106342;1277;22544;-74
2022/01/30 11:47:48;;;;;;;4.60;2.20;;;;;;;2.17;83.91;97118.25;106369;1277;137416;-73
2022/01/30 11:50:25;;;;;;;11.80;2.60;;;;;;;2.21;83.63;97109.45;107153;1277;22826;-74
2022/01/30 11:53:13;;;;;;;8.50;2.60;;;;;;;2.25;83.66;97110.39;106394;1277;138002;-74
2022/01/30 11:56:00;;;;;;;7.10;2.50;;;;;;;2.30;83.75;97103.64;106478;1278;24219;-73
2022/01/30 11:58:34;;;;;;;11.80;2.80;;;;;;;2.33;83.42;97103.06;106249;1279;137523;-73
2022/01/30 12:01:04;;;;;;;5.50;2.20;;;;;;;2.33;83.20;97099.80;106314;1277;24328;-73
2022/01/30 12:03:35;;;;;;;11.00;2.50;;;;;;;2.32;82.97;97108.95;106593;1278;23289;-72
2022/01/30 12:06:21;;;;;;;8.30;2.70;;;;;;;2.31;82.85;97109.14;106447;1277;138365;-73
2022/01/30 12:08:52;;;;;;;8.70;2.60;;;;;;;2.31;82.72;97103.88;105995;1277;22584;-73
2022/01/30 12:11:36;;;;;;;11.00;3.20;;;;;;;2.32;82.75;97098.79;106208;1277;137027;-74
2022/01/30 12:14:10;;;;;;;9.20;3.00;;;;;;;2.31;82.50;97096.36;105968;1277;26287;-73
2022/01/30 12:16:46;;;;;;;8.00;2.70;;;;;;;2.31;82.45;97093.09;106412;1278;137773;-74
2022/01/30 12:19:18;;;;;;;12.00;2.80;;;;;;;2.32;82.45;97087.92;106175;1278;25350;-73
2022/01/30 12:21:45;;;;;;;10.20;3.10;;;;;;;2.32;82.55;97081.17;106186;1278;22551;-73
2022/01/30 12:24:31;;;;;;;9.70;3.30;;;;;;;2.31;82.44;97074.59;106020;1278;137921;-73
2022/01/30 12:27:02;;;;;;;13.30;3.40;;;;;;;2.32;82.17;97080.19;106358;1279;31831;-73
2022/01/30 12:29:47;;;;;;;15.60;4.30;;;;;;;2.33;81.93;97074.47;105900;1277;137341;-74
2022/01/30 12:32:22;;;;;;;12.30;3.30;;;;;;;2.34;82.05;97072.97;105987;1279;22550;-74
2022/01/30 12:35:02;;;;;;;7.70;2.90;;;;;;;2.34;82.10;97063.88;105995;1279;137907;-73
2022/01/30 12:37:32;;;;;;;9.50;2.90;;;;;;;2.33;81.89;97074.05;106086;1279;30654;-73
2022/01/30 12:40:13;;;;;;;7.80;2.90;;;;;;;2.36;82.01;97072.74;106259;1279;22572;-73
2022/01/30 12:42:41;;;;;;;9.30;3.00;;;;;;;2.38;81.97;97073.34;106136;1279;137233;-73
2022/01/30 12:45:09;;;;;;;11.10;2.70;;;;;;;2.39;81.65;97078.52;105905;1279;25189;-73
2022/01/30 12:47:56;;;;;;;11.10;3.20;;;;;;;2.41;81.19;97075.25;105894;1277;137585;-73
2022/01/30 12:50:33;;;;;;;7.40;3.10;;;;;;;2.42;81.33;97081.90;106845;1277;22580;-73
2022/01/30 12:53:02;;;;;;;11.40;3.40;;;;;;;2.44;81.26;97089.20;106496;1277;137586;-73
2022/01/30 12:55:29;;;;;;;11.40;2.90;;;;;;;2.44;81.49;97090.11;106705;1277;23192;-73
2022/01/30 12:57:58;;;;;;;9.20;2.50;;;;;;;2.42;81.77;97101.06;106004;1280;22692;-73
2022/01/30 13:00:25;;;;;;;10.60;3.10;;;;;;;2.38;81.44;97106.73;106617;1278;138089;-73
2022/01/30 13:02:56;;;;;;;13.20;2.60;;;;;;;2.38;81.57;97114.49;106736;1279;24953;-73